createdAt,value
2023-07-30T00:00:41.552Z,5.20
2023-07-30T00:03:29.963Z,6.00
2023-07-30T00:05:58.484Z,5.00
2023-07-30T00:08:26.607Z,5.60
2023-07-30T00:10:57.608Z,5.40
2023-07-30T00:13:29.238Z,4.90
2023-07-30T00:15:57.527Z,5.10
2023-07-30T00:18:25.862Z,5.30
2023-07-30T00:20:54.338Z,5.70
2023-07-30T00:23:25.094Z,5.80
2023-07-30T00:25:53.312Z,5.90
2023-07-30T00:28:21.564Z,5.20
2023-07-30T00:30:50.410Z,6.10
2023-07-30T00:33:19.020Z,5.10
2023-07-30T00:35:47.578Z,5.10
2023-07-30T00:38:17.336Z,5.10
2023-07-30T00:40:46.117Z,5.80
2023-07-30T00:43:14.308Z,5.30
2023-07-30T00:45:45.175Z,5.50
2023-07-30T00:48:14.607Z,4.90
2023-07-30T00:50:43.361Z,4.80
2023-07-30T00:53:15.457Z,5.20
2023-07-30T00:55:44.136Z,5.10
2023-07-30T00:58:12.941Z,4.90
2023-07-30T01:00:42.580Z,4.90
2023-07-30T01:03:11.057Z,5.50
2023-07-30T01:05:39.340Z,5.10
2023-07-30T01:08:07.809Z,5.50
2023-07-30T01:10:37.593Z,4.60
2023-07-30T01:13:08.293Z,5.50
2023-07-30T01:15:39.054Z,4.70
2023-07-30T01:18:07.896Z,4.20
2023-07-30T01:20:36.273Z,5.30
2023-07-30T01:23:04.585Z,4.70
2023-07-30T01:25:37.717Z,5.20
2023-07-30T01:28:14.284Z,4.30
2023-07-30T01:30:44.334Z,5.90
2023-07-30T01:33:19.787Z,4.70
2023-07-30T01:35:48.505Z,4.10
2023-07-30T01:38:18.218Z,4.50
2023-07-30T01:40:46.797Z,5.20
2023-07-30T01:43:15.209Z,4.90
2023-07-30T01:45:43.277Z,4.70
2023-07-30T01:48:14.730Z,4.30
2023-07-30T01:50:44.363Z,4.10
2023-07-30T01:53:12.632Z,4.30
2023-07-30T01:55:44.628Z,4.20
2023-07-30T01:58:14.331Z,4.70
2023-07-30T02:00:42.615Z,4.20
2023-07-30T02:03:10.947Z,4.40
2023-07-30T02:05:39.507Z,4.70
2023-07-30T02:08:08.053Z,4.20
2023-07-30T02:10:36.452Z,5.80
2023-07-30T02:13:04.870Z,5.00
2023-07-30T02:15:33.193Z,5.10
2023-07-30T02:18:01.607Z,4.50
2023-07-30T02:20:29.807Z,4.80
2023-07-30T02:22:57.918Z,4.70
2023-07-30T02:25:26.142Z,5.00
2023-07-30T02:27:54.534Z,4.30
2023-07-30T02:30:23.027Z,4.90
2023-07-30T02:32:51.826Z,4.20
2023-07-30T02:35:20.356Z,4.80
2023-07-30T02:37:50.120Z,5.00
2023-07-30T02:40:18.867Z,4.70
2023-07-30T02:42:47.196Z,4.70
2023-07-30T02:45:15.657Z,5.30
2023-07-30T02:47:43.985Z,4.60
2023-07-30T02:50:12.425Z,5.10
2023-07-30T02:52:40.638Z,3.70
2023-07-30T02:55:09.532Z,4.80
2023-07-30T02:57:37.699Z,5.50
2023-07-30T03:00:07.139Z,5.10
2023-07-30T03:02:35.477Z,4.70
2023-07-30T03:05:05.262Z,4.40
2023-07-30T03:07:33.520Z,4.90
2023-07-30T03:10:02.430Z,4.70
2023-07-30T03:12:30.621Z,4.40
2023-07-30T03:14:59.033Z,4.80
2023-07-30T03:17:27.604Z,5.00
2023-07-30T03:19:55.846Z,4.90
2023-07-30T03:22:23.972Z,5.20
2023-07-30T03:24:52.257Z,4.50
2023-07-30T03:27:22.095Z,5.00
2023-07-30T03:29:50.404Z,4.50
2023-07-30T03:32:18.876Z,4.60
2023-07-30T03:34:47.204Z,4.40
2023-07-30T03:37:15.998Z,5.30
2023-07-30T03:39:44.505Z,5.60
2023-07-30T03:42:12.589Z,4.70
2023-07-30T03:44:40.740Z,5.10
2023-07-30T03:47:08.861Z,5.30
2023-07-30T03:49:38.592Z,5.40
2023-07-30T03:52:07.866Z,6.30
2023-07-30T03:54:36.185Z,6.40
2023-07-30T03:57:04.914Z,5.30
2023-07-30T03:59:33.064Z,5.40
2023-07-30T04:02:01.783Z,6.40
2023-07-30T04:04:30.101Z,5.30
2023-07-30T04:06:58.390Z,5.00
2023-07-30T04:09:27.148Z,5.80
2023-07-30T04:11:55.414Z,4.80
2023-07-30T04:14:24.070Z,5.80
2023-07-30T04:16:52.478Z,4.80
2023-07-30T04:19:22.292Z,5.30
2023-07-30T04:21:50.587Z,5.20
2023-07-30T04:24:20.087Z,5.10
2023-07-30T04:26:48.595Z,5.10
2023-07-30T04:29:17.883Z,4.80
2023-07-30T04:31:47.053Z,5.10
2023-07-30T04:34:16.338Z,5.30
2023-07-30T04:36:44.996Z,5.80
2023-07-30T04:39:14.236Z,5.90
2023-07-30T04:41:42.678Z,5.00
2023-07-30T04:44:11.326Z,5.40
2023-07-30T04:46:39.902Z,5.50
2023-07-30T04:49:08.310Z,6.00
2023-07-30T04:51:37.396Z,5.90
2023-07-30T04:54:05.969Z,5.50
2023-07-30T04:56:34.328Z,5.50
2023-07-30T04:59:03.157Z,5.20
2023-07-30T05:01:32.528Z,5.40
2023-07-30T05:04:00.871Z,6.10
2023-07-30T05:06:29.190Z,3.90
2023-07-30T05:08:57.883Z,3.80
2023-07-30T05:11:26.010Z,3.60
2023-07-30T05:13:54.912Z,3.80
2023-07-30T05:16:23.381Z,3.70
2023-07-30T05:18:51.647Z,3.40
2023-07-30T05:21:20.144Z,3.50
2023-07-30T05:23:50.706Z,3.30
2023-07-30T05:26:18.767Z,3.90
2023-07-30T05:28:46.966Z,3.40
2023-07-30T05:31:16.152Z,3.70
2023-07-30T05:33:44.993Z,3.40
2023-07-30T05:36:13.618Z,3.10
2023-07-30T05:38:42.030Z,3.80
2023-07-30T05:41:10.449Z,3.90
2023-07-30T05:43:38.857Z,3.10
2023-07-30T05:46:09.596Z,3.40
2023-07-30T05:48:44.843Z,3.40
2023-07-30T05:51:14.852Z,3.30
2023-07-30T05:53:54.436Z,3.00
2023-07-30T05:56:28.382Z,3.40
2023-07-30T05:58:56.862Z,3.00
2023-07-30T06:01:25.203Z,3.10
2023-07-30T06:03:53.483Z,3.10
2023-07-30T06:06:28.086Z,3.20
2023-07-30T06:08:57.086Z,2.70
2023-07-30T06:11:26.324Z,3.10
2023-07-30T06:13:55.466Z,2.40
2023-07-30T06:16:24.058Z,2.70
2023-07-30T06:18:52.224Z,2.50
2023-07-30T06:21:20.281Z,2.40
2023-07-30T06:23:48.699Z,3.10
2023-07-30T06:26:17.102Z,4.30
2023-07-30T06:28:45.481Z,4.40
2023-07-30T06:31:14.492Z,3.30
2023-07-30T06:33:42.856Z,3.30
2023-07-30T06:36:11.186Z,2.70
2023-07-30T06:38:39.741Z,3.00
2023-07-30T06:41:08.155Z,2.70
2023-07-30T06:43:36.499Z,3.10
2023-07-30T06:46:05.054Z,2.80
2023-07-30T06:48:33.692Z,2.70
2023-07-30T06:51:03.083Z,2.50
2023-07-30T06:53:31.624Z,2.20
2023-07-30T06:55:59.916Z,2.60
2023-07-30T06:58:28.046Z,3.20
2023-07-30T07:00:56.437Z,3.30
2023-07-30T07:03:26.130Z,2.50
2023-07-30T07:06:03.531Z,3.30
2023-07-30T07:08:44.201Z,3.10
2023-07-30T07:11:12.614Z,2.60
2023-07-30T07:13:41.025Z,2.90
2023-07-30T07:16:10.069Z,5.20
2023-07-30T07:18:38.431Z,3.70
2023-07-30T07:21:06.710Z,3.40
2023-07-30T07:23:35.210Z,7.90
2023-07-30T07:26:03.508Z,3.60
2023-07-30T07:28:32.097Z,3.10
2023-07-30T07:31:00.645Z,2.70
2023-07-30T07:33:29.385Z,2.60
2023-07-30T07:36:08.115Z,2.60
2023-07-30T07:38:37.518Z,2.30
2023-07-30T07:41:05.868Z,2.60
2023-07-30T07:43:37.821Z,2.30
2023-07-30T07:46:11.313Z,2.20
2023-07-30T07:48:40.062Z,2.70
2023-07-30T07:51:10.731Z,2.80
2023-07-30T07:53:39.484Z,2.60
2023-07-30T07:56:08.396Z,2.40
2023-07-30T07:58:37.605Z,2.80
2023-07-30T08:01:05.895Z,2.60
2023-07-30T08:03:34.409Z,2.50
2023-07-30T08:06:03.005Z,2.30
2023-07-30T08:08:31.320Z,2.30
2023-07-30T08:11:00.098Z,2.70
2023-07-30T08:13:28.305Z,2.40
2023-07-30T08:15:56.440Z,2.80
2023-07-30T08:18:25.044Z,2.50
2023-07-30T08:20:53.308Z,1.90
2023-07-30T08:23:22.038Z,2.40
2023-07-30T08:25:51.846Z,2.20
2023-07-30T08:28:21.356Z,1.90
2023-07-30T08:30:49.852Z,2.20
2023-07-30T08:33:18.202Z,2.20
2023-07-30T08:35:46.622Z,1.80
2023-07-30T08:38:15.013Z,2.70
2023-07-30T08:40:44.057Z,2.00
2023-07-30T08:43:12.443Z,2.00
2023-07-30T08:45:40.831Z,2.00
2023-07-30T08:48:08.965Z,1.80
2023-07-30T08:50:38.438Z,1.90
2023-07-30T08:53:08.843Z,2.40
2023-07-30T08:55:38.381Z,1.60
2023-07-30T08:58:07.606Z,1.60
2023-07-30T09:00:38.356Z,1.70
2023-07-30T09:03:08.617Z,1.50
2023-07-30T09:05:38.036Z,1.60
2023-07-30T09:08:08.027Z,1.40
2023-07-30T09:10:36.424Z,2.00
2023-07-30T09:13:04.933Z,1.90
2023-07-30T09:15:35.046Z,1.90
2023-07-30T09:18:03.488Z,1.90
2023-07-30T09:20:39.756Z,1.40
2023-07-30T09:23:09.666Z,1.40
2023-07-30T09:25:39.065Z,2.00
2023-07-30T09:28:08.137Z,2.10
2023-07-30T09:30:36.775Z,2.20
2023-07-30T09:33:06.067Z,2.10
2023-07-30T09:35:35.822Z,2.60
2023-07-30T09:38:05.292Z,2.20
2023-07-30T09:40:40.092Z,2.10
2023-07-30T09:43:08.357Z,1.40
2023-07-30T09:45:38.245Z,1.80
2023-07-30T09:48:07.380Z,1.70
2023-07-30T09:50:36.844Z,1.30
2023-07-30T09:53:06.167Z,1.50
2023-07-30T09:55:34.369Z,2.00
2023-07-30T09:58:02.709Z,2.10
2023-07-30T10:00:31.600Z,1.70
2023-07-30T10:03:02.621Z,1.60
2023-07-30T10:05:37.745Z,1.70
2023-07-30T10:08:17.640Z,1.40
2023-07-30T10:10:46.092Z,1.90
2023-07-30T10:13:16.238Z,2.50
2023-07-30T10:15:45.417Z,1.50
2023-07-30T10:18:13.682Z,1.60
2023-07-30T10:20:47.129Z,1.60
2023-07-30T10:23:15.238Z,1.50
2023-07-30T10:25:54.003Z,1.60
2023-07-30T10:28:31.210Z,1.30
2023-07-30T10:31:09.416Z,1.30
2023-07-30T10:33:47.129Z,1.10
2023-07-30T10:36:18.839Z,1.30
2023-07-30T10:38:48.486Z,1.40
2023-07-30T10:41:18.739Z,1.40
2023-07-30T10:43:51.601Z,1.20
2023-07-30T10:46:20.683Z,1.30
2023-07-30T10:48:50.294Z,1.30
2023-07-30T10:51:20.478Z,1.50
2023-07-30T10:53:50.476Z,1.10
2023-07-30T10:56:23.160Z,1.10
2023-07-30T10:58:53.713Z,1.10
2023-07-30T11:01:26.942Z,1.10
2023-07-30T11:03:55.589Z,1.60
2023-07-30T11:06:25.799Z,1.20
2023-07-30T11:08:54.737Z,0.90
2023-07-30T11:11:25.786Z,1.20
2023-07-30T11:13:54.192Z,1.70
2023-07-30T11:16:22.804Z,1.40
2023-07-30T11:18:51.759Z,2.20
2023-07-30T11:21:20.431Z,1.80
2023-07-30T11:23:48.633Z,1.50
2023-07-30T11:26:20.931Z,1.00
2023-07-30T11:28:49.726Z,1.30
2023-07-30T11:31:25.947Z,1.40
2023-07-30T11:33:54.599Z,2.20
2023-07-30T11:36:26.783Z,1.40
2023-07-30T11:38:55.514Z,1.40
2023-07-30T11:41:26.032Z,1.40
2023-07-30T11:43:55.282Z,1.80
2023-07-30T11:46:26.144Z,1.50
2023-07-30T11:49:11.518Z,1.30
2023-07-30T11:51:40.303Z,1.30
2023-07-30T11:54:09.274Z,0.90
2023-07-30T11:56:37.715Z,1.00
2023-07-30T11:59:08.285Z,1.20
2023-07-30T12:01:38.559Z,0.80
2023-07-30T12:04:08.066Z,1.00
2023-07-30T12:06:43.281Z,1.10
2023-07-30T12:09:15.556Z,1.20
2023-07-30T12:11:56.932Z,0.90
2023-07-30T12:17:04.436Z,1.10
2023-07-30T12:19:33.976Z,1.10
2023-07-30T12:22:02.200Z,0.90
2023-07-30T12:24:30.458Z,1.10
2023-07-30T12:26:58.955Z,1.20
2023-07-30T12:29:27.678Z,1.10
2023-07-30T12:31:57.834Z,0.90
2023-07-30T12:34:26.445Z,1.00
2023-07-30T12:36:59.800Z,1.10
2023-07-30T12:39:52.003Z,1.10
2023-07-30T12:42:20.807Z,1.10
2023-07-30T12:44:48.856Z,1.70
2023-07-30T12:47:17.520Z,0.70
2023-07-30T12:49:46.058Z,0.90
2023-07-30T12:52:14.682Z,0.80
2023-07-30T12:54:42.962Z,1.00
2023-07-30T12:57:11.188Z,1.10
2023-07-30T12:59:39.313Z,1.20
2023-07-30T13:02:08.181Z,1.10
2023-07-30T13:04:36.670Z,1.10
2023-07-30T13:07:05.197Z,1.10
2023-07-30T13:09:33.884Z,1.10
2023-07-30T13:12:02.458Z,1.20
2023-07-30T13:14:30.874Z,1.10
2023-07-30T13:16:59.633Z,1.30
2023-07-30T13:19:31.451Z,1.20
2023-07-30T13:22:00.338Z,1.30
2023-07-30T13:24:30.946Z,1.20
2023-07-30T13:26:59.668Z,1.40
2023-07-30T13:29:27.995Z,1.10
2023-07-30T13:31:56.727Z,1.60
2023-07-30T13:34:25.293Z,1.20
2023-07-30T13:36:54.161Z,1.40
2023-07-30T13:39:22.464Z,1.20
2023-07-30T13:41:50.651Z,1.50
2023-07-30T13:44:18.898Z,1.50
2023-07-30T13:46:47.085Z,1.50
2023-07-30T13:49:15.534Z,1.50
2023-07-30T13:51:44.047Z,1.60
2023-07-30T13:54:13.203Z,1.40
2023-07-30T13:56:41.607Z,1.80
2023-07-30T13:59:10.107Z,1.40
2023-07-30T14:01:38.799Z,2.00
2023-07-30T14:04:07.131Z,1.80
2023-07-30T14:06:35.620Z,1.80
2023-07-30T14:09:05.855Z,1.30
2023-07-30T14:11:34.519Z,1.90
2023-07-30T14:14:03.023Z,1.70
2023-07-30T14:16:48.087Z,2.30
2023-07-30T14:19:16.425Z,2.10
2023-07-30T14:21:45.083Z,4.70
2023-07-30T14:24:13.254Z,2.10
2023-07-30T14:26:41.751Z,3.60
2023-07-30T14:29:10.307Z,2.10
2023-07-30T14:31:41.265Z,3.20
2023-07-30T14:34:10.088Z,3.10
2023-07-30T14:36:38.291Z,4.90
2023-07-30T14:39:06.624Z,3.10
2023-07-30T14:41:35.355Z,3.20
2023-07-30T14:44:03.738Z,3.30
2023-07-30T14:46:32.117Z,1.50
2023-07-30T14:49:01.027Z,1.80
2023-07-30T14:51:29.423Z,2.10
2023-07-30T14:53:57.583Z,1.40
2023-07-30T14:56:27.919Z,1.30
2023-07-30T14:58:55.994Z,1.00
2023-07-30T15:01:39.213Z,1.60
2023-07-30T15:06:37.003Z,1.70
2023-07-30T15:09:05.735Z,1.20
2023-07-30T15:11:34.020Z,1.00
2023-07-30T15:14:02.701Z,0.90
2023-07-30T15:16:30.820Z,1.20
2023-07-30T15:18:59.725Z,1.30
2023-07-30T15:21:30.888Z,1.50
2023-07-30T15:24:01.908Z,1.30
2023-07-30T15:26:30.268Z,1.50
2023-07-30T15:28:58.784Z,1.60
2023-07-30T15:31:28.191Z,1.70
2023-07-30T15:33:56.612Z,2.60
2023-07-30T15:36:25.290Z,2.50
2023-07-30T15:38:55.872Z,2.50
2023-07-30T15:41:24.370Z,2.30
2023-07-30T15:43:52.953Z,2.20
2023-07-30T15:46:21.970Z,2.70
2023-07-30T15:48:50.810Z,2.40
2023-07-30T15:51:19.524Z,2.60
2023-07-30T15:53:48.404Z,2.90
2023-07-30T15:56:16.672Z,3.10
2023-07-30T15:58:45.076Z,3.30
2023-07-30T16:01:13.538Z,3.40
2023-07-30T16:03:41.887Z,4.00
2023-07-30T16:06:10.586Z,4.60
2023-07-30T16:08:40.433Z,3.70
2023-07-30T16:11:12.287Z,4.10
2023-07-30T16:13:40.555Z,3.70
2023-07-30T16:16:13.491Z,4.10
2023-07-30T16:18:44.763Z,3.60
2023-07-30T16:21:12.907Z,4.10
2023-07-30T16:23:41.554Z,4.00
2023-07-30T16:26:10.655Z,4.30
2023-07-30T16:28:39.469Z,5.20
2023-07-30T16:31:08.272Z,3.90
2023-07-30T16:33:37.272Z,4.00
2023-07-30T16:36:08.279Z,3.80
2023-07-30T16:38:36.883Z,3.40
2023-07-30T16:41:04.949Z,3.20
2023-07-30T16:43:33.098Z,2.70
2023-07-30T16:46:05.011Z,3.30
2023-07-30T16:48:33.323Z,3.00
2023-07-30T16:51:02.517Z,13.70
2023-07-30T16:53:30.942Z,4.60
2023-07-30T16:55:59.239Z,4.30
2023-07-30T16:58:27.444Z,3.50
2023-07-30T17:01:05.253Z,3.60
2023-07-30T17:03:40.261Z,2.70
2023-07-30T17:06:08.841Z,2.70
2023-07-30T17:08:40.089Z,2.50
2023-07-30T17:11:09.443Z,2.80
2023-07-30T17:13:37.682Z,4.10
2023-07-30T17:16:07.484Z,3.70
2023-07-30T17:18:36.036Z,4.90
2023-07-30T17:21:05.542Z,3.50
2023-07-30T17:23:34.548Z,3.20
2023-07-30T17:26:03.487Z,4.60
2023-07-30T17:28:33.262Z,3.00
2023-07-30T17:31:02.770Z,2.80
2023-07-30T17:33:32.032Z,3.10
2023-07-30T17:36:04.230Z,3.30
2023-07-30T17:38:32.489Z,3.00
2023-07-30T17:41:00.639Z,3.30
2023-07-30T17:43:29.242Z,2.60
2023-07-30T17:45:57.661Z,2.60
2023-07-30T17:48:28.682Z,3.70
2023-07-30T17:50:57.218Z,2.50
2023-07-30T17:53:25.905Z,3.00
2023-07-30T17:55:54.100Z,2.90
2023-07-30T17:58:24.617Z,2.70
2023-07-30T18:00:52.950Z,3.10
2023-07-30T18:03:21.312Z,2.80
2023-07-30T18:05:49.831Z,3.00
2023-07-30T18:08:18.336Z,3.20
2023-07-30T18:10:49.508Z,3.20
2023-07-30T18:13:19.020Z,3.30
2023-07-30T18:15:47.314Z,3.90
2023-07-30T18:18:15.751Z,3.90
2023-07-30T18:20:44.054Z,3.90
2023-07-30T18:23:13.787Z,3.50
2023-07-30T18:25:42.227Z,3.30
2023-07-30T18:28:10.581Z,4.10
2023-07-30T18:30:40.233Z,3.40
2023-07-30T18:33:11.098Z,3.40
2023-07-30T18:35:39.927Z,3.40
2023-07-30T18:38:10.832Z,3.30
2023-07-30T18:40:41.567Z,3.90
2023-07-30T18:43:10.029Z,4.10
2023-07-30T18:45:38.724Z,3.50
2023-07-30T18:48:07.510Z,3.70
2023-07-30T18:50:38.046Z,3.70
2023-07-30T18:53:06.478Z,3.60
2023-07-30T18:55:36.092Z,4.00
2023-07-30T18:58:04.280Z,4.50
2023-07-30T19:00:33.626Z,4.10
2023-07-30T19:03:01.927Z,4.30
2023-07-30T19:05:30.401Z,3.80
2023-07-30T19:08:00.459Z,3.90
2023-07-30T19:10:28.861Z,4.10
2023-07-30T19:12:58.598Z,4.10
2023-07-30T19:15:28.027Z,4.20
2023-07-30T19:17:56.257Z,3.90
2023-07-30T19:20:24.725Z,3.80
2023-07-30T19:22:53.155Z,3.80
2023-07-30T19:25:22.458Z,3.70
2023-07-30T19:27:50.914Z,6.30
2023-07-30T19:30:20.216Z,3.40
2023-07-30T19:32:48.537Z,3.40
2023-07-30T19:35:16.759Z,3.70
2023-07-30T19:37:46.055Z,3.50
2023-07-30T19:40:14.666Z,3.90
2023-07-30T19:42:42.874Z,3.70
2023-07-30T19:45:11.597Z,3.50
2023-07-30T19:47:40.766Z,3.60
2023-07-30T19:50:16.534Z,3.60
2023-07-30T19:52:47.043Z,2.80
2023-07-30T19:55:15.500Z,2.80
2023-07-30T19:57:43.793Z,2.80
2023-07-30T20:00:12.938Z,2.60
2023-07-30T20:02:41.749Z,1.60
2023-07-30T20:05:10.232Z,2.40
2023-07-30T20:07:38.543Z,1.80
2023-07-30T20:10:07.541Z,1.70
2023-07-30T20:12:35.646Z,1.90
2023-07-30T20:15:04.778Z,2.00
2023-07-30T20:17:33.175Z,1.30
2023-07-30T20:20:01.397Z,1.40
2023-07-30T20:22:29.607Z,1.30
2023-07-30T20:24:57.893Z,1.60
2023-07-30T20:27:26.154Z,1.80
2023-07-30T20:29:54.887Z,1.30
2023-07-30T20:32:25.354Z,1.20
2023-07-30T20:34:53.545Z,2.10
2023-07-30T20:37:21.752Z,1.10
2023-07-30T20:39:50.068Z,1.50
2023-07-30T20:42:18.231Z,1.60
2023-07-30T20:44:46.534Z,1.50
2023-07-30T20:47:14.568Z,1.50
2023-07-30T20:49:44.246Z,1.00
2023-07-30T20:52:12.500Z,1.10
2023-07-30T20:54:40.740Z,1.50
2023-07-30T20:57:09.171Z,1.20
2023-07-30T20:59:38.085Z,1.10
2023-07-30T21:02:06.636Z,0.90
2023-07-30T21:04:35.591Z,1.60
2023-07-30T21:07:04.427Z,1.40
2023-07-30T21:09:32.551Z,1.00
2023-07-30T21:12:00.610Z,1.20
2023-07-30T21:14:29.303Z,0.90
2023-07-30T21:16:57.434Z,1.00
2023-07-30T21:19:26.695Z,1.10
2023-07-30T21:21:55.620Z,1.20
2023-07-30T21:24:23.846Z,0.90
2023-07-30T21:26:52.026Z,1.10
2023-07-30T21:29:20.484Z,1.20
2023-07-30T21:31:49.311Z,1.40
2023-07-30T21:34:17.677Z,1.40
2023-07-30T21:36:46.085Z,1.30
2023-07-30T21:39:15.142Z,0.90
2023-07-30T21:41:43.545Z,1.00
2023-07-30T21:44:11.612Z,1.20
2023-07-30T21:46:40.174Z,1.00
2023-07-30T21:49:08.662Z,0.80
2023-07-30T21:51:37.187Z,0.90
2023-07-30T21:54:05.492Z,1.10
2023-07-30T21:56:33.654Z,1.00
2023-07-30T21:59:01.826Z,1.00
2023-07-30T22:01:29.915Z,1.00
2023-07-30T22:04:00.414Z,1.30
2023-07-30T22:06:28.852Z,0.80
2023-07-30T22:08:57.275Z,1.10
2023-07-30T22:11:26.964Z,0.80
2023-07-30T22:13:56.333Z,1.00
2023-07-30T22:16:24.665Z,0.90
2023-07-30T22:18:52.747Z,0.70
2023-07-30T22:21:21.009Z,0.80
2023-07-30T22:23:51.884Z,0.80
2023-07-30T22:26:20.097Z,0.80
2023-07-30T22:28:48.757Z,0.50
2023-07-30T22:31:17.159Z,0.80
2023-07-30T22:33:45.555Z,0.70
2023-07-30T22:36:13.760Z,0.40
2023-07-30T22:38:41.917Z,0.70
2023-07-30T22:41:10.143Z,0.60
2023-07-30T22:43:38.166Z,0.80
2023-07-30T22:46:06.603Z,0.60
2023-07-30T22:48:34.923Z,0.80
2023-07-30T22:51:03.863Z,0.90
2023-07-30T22:53:32.097Z,0.70
2023-07-30T22:56:00.154Z,0.70
2023-07-30T22:58:28.425Z,0.90
2023-07-30T23:00:56.872Z,1.00
2023-07-30T23:03:25.160Z,1.00
2023-07-30T23:05:53.716Z,0.80
2023-07-30T23:08:22.106Z,0.70
2023-07-30T23:10:53.707Z,1.00
2023-07-30T23:13:21.835Z,1.20
2023-07-30T23:15:50.207Z,0.80
2023-07-30T23:18:18.729Z,1.10
2023-07-30T23:20:48.881Z,0.90
2023-07-30T23:23:17.270Z,0.80
2023-07-30T23:25:45.608Z,0.70
2023-07-30T23:28:14.053Z,1.40
2023-07-30T23:30:42.887Z,0.80
2023-07-30T23:33:11.285Z,1.30
2023-07-30T23:35:39.679Z,1.30
2023-07-30T23:38:08.370Z,1.40
2023-07-30T23:40:36.696Z,1.00
2023-07-30T23:43:07.104Z,0.90
2023-07-30T23:45:35.439Z,0.90
2023-07-30T23:48:04.273Z,1.70
2023-07-30T23:50:32.995Z,1.50
2023-07-30T23:53:01.319Z,1.20
2023-07-30T23:55:29.453Z,1.20
2023-07-30T23:57:57.726Z,1.30
